sensor_id;sensor_type;location;lat;lon;timestamp;P1;durP1;ratioP1;P2;durP2;ratioP2
75340;SDS011;64931;47.562;18.920;2023-07-31T00:01:25;4.80;;;3.40;;
75340;SDS011;64931;47.562;18.920;2023-07-31T00:03:51;5.10;;;3.30;;
75340;SDS011;64931;47.562;18.920;2023-07-31T00:06:16;6.40;;;3.40;;
75340;SDS011;64931;47.562;18.920;2023-07-31T00:08:41;5.00;;;3.20;;
75340;SDS011;64931;47.562;18.920;2023-07-31T00:11:07;6.60;;;3.40;;
75340;SDS011;64931;47.562;18.920;2023-07-31T00:13:32;5.20;;;3.60;;
75340;SDS011;64931;47.562;18.920;2023-07-31T00:15:57;6.40;;;4.00;;
75340;SDS011;64931;47.562;18.920;2023-07-31T00:18:24;5.40;;;3.90;;
75340;SDS011;64931;47.562;18.920;2023-07-31T00:20:49;7.60;;;4.60;;
75340;SDS011;64931;47.562;18.920;2023-07-31T00:23:14;5.50;;;4.10;;
75340;SDS011;64931;47.562;18.920;2023-07-31T00:25:40;6.10;;;4.40;;
75340;SDS011;64931;47.562;18.920;2023-07-31T00:28:05;6.70;;;4.70;;
75340;SDS011;64931;47.562;18.920;2023-07-31T00:30:30;6.50;;;5.00;;
75340;SDS011;64931;47.562;18.920;2023-07-31T00:32:56;7.80;;;5.50;;
75340;SDS011;64931;47.562;18.920;2023-07-31T00:35:21;7.10;;;5.40;;
75340;SDS011;64931;47.562;18.920;2023-07-31T00:37:46;7.60;;;4.90;;
75340;SDS011;64931;47.562;18.920;2023-07-31T00:40:12;6.60;;;5.10;;
75340;SDS011;64931;47.562;18.920;2023-07-31T00:42:39;7.80;;;4.80;;
75340;SDS011;64931;47.562;18.920;2023-07-31T00:45:04;6.00;;;4.10;;
75340;SDS011;64931;47.562;18.920;2023-07-31T00:47:30;5.80;;;4.20;;
75340;SDS011;64931;47.562;18.920;2023-07-31T00:49:55;5.80;;;4.10;;
75340;SDS011;64931;47.562;18.920;2023-07-31T00:52:21;6.30;;;4.80;;
75340;SDS011;64931;47.562;18.920;2023-07-31T00:54:47;6.70;;;5.10;;
75340;SDS011;64931;47.562;18.920;2023-07-31T00:57:14;7.10;;;5.60;;
75340;SDS011;64931;47.562;18.920;2023-07-31T00:59:39;6.10;;;4.70;;
75340;SDS011;64931;47.562;18.920;2023-07-31T01:02:05;8.20;;;5.70;;
75340;SDS011;64931;47.562;18.920;2023-07-31T01:04:30;7.50;;;5.50;;
75340;SDS011;64931;47.562;18.920;2023-07-31T01:06:59;6.50;;;5.50;;
75340;SDS011;64931;47.562;18.920;2023-07-31T01:09:34;7.30;;;5.80;;
75340;SDS011;64931;47.562;18.920;2023-07-31T01:12:04;7.10;;;5.40;;
75340;SDS011;64931;47.562;18.920;2023-07-31T01:14:32;10.60;;;5.90;;
75340;SDS011;64931;47.562;18.920;2023-07-31T01:16:57;8.20;;;6.00;;
75340;SDS011;64931;47.562;18.920;2023-07-31T01:19:23;7.80;;;6.50;;
75340;SDS011;64931;47.562;18.920;2023-07-31T01:27:24;7.00;;;5.40;;
75340;SDS011;64931;47.562;18.920;2023-07-31T01:30:14;7.50;;;4.80;;
75340;SDS011;64931;47.562;18.920;2023-07-31T01:32:42;8.00;;;5.40;;
75340;SDS011;64931;47.562;18.920;2023-07-31T01:35:09;6.50;;;5.00;;
75340;SDS011;64931;47.562;18.920;2023-07-31T01:37:34;7.00;;;5.00;;
75340;SDS011;64931;47.562;18.920;2023-07-31T01:40:00;6.80;;;5.20;;
75340;SDS011;64931;47.562;18.920;2023-07-31T01:42:25;6.50;;;4.60;;
75340;SDS011;64931;47.562;18.920;2023-07-31T01:44:51;7.70;;;5.00;;
75340;SDS011;64931;47.562;18.920;2023-07-31T01:47:16;5.50;;;3.70;;
75340;SDS011;64931;47.562;18.920;2023-07-31T01:49:42;7.40;;;3.70;;
75340;SDS011;64931;47.562;18.920;2023-07-31T01:52:07;5.30;;;3.50;;
75340;SDS011;64931;47.562;18.920;2023-07-31T01:54:32;6.60;;;3.60;;
75340;SDS011;64931;47.562;18.920;2023-07-31T01:56:58;5.90;;;3.90;;
75340;SDS011;64931;47.562;18.920;2023-07-31T01:59:24;5.60;;;3.80;;
75340;SDS011;64931;47.562;18.920;2023-07-31T02:01:49;6.40;;;3.80;;
75340;SDS011;64931;47.562;18.920;2023-07-31T02:04:15;5.50;;;3.90;;
75340;SDS011;64931;47.562;18.920;2023-07-31T02:06:40;5.90;;;3.90;;
75340;SDS011;64931;47.562;18.920;2023-07-31T02:09:05;5.10;;;3.80;;
75340;SDS011;64931;47.562;18.920;2023-07-31T02:11:31;5.80;;;4.10;;
75340;SDS011;64931;47.562;18.920;2023-07-31T02:13:56;6.00;;;3.80;;
75340;SDS011;64931;47.562;18.920;2023-07-31T02:16:21;5.10;;;3.80;;
75340;SDS011;64931;47.562;18.920;2023-07-31T02:18:47;5.10;;;3.90;;
75340;SDS011;64931;47.562;18.920;2023-07-31T02:21:12;6.10;;;3.90;;
75340;SDS011;64931;47.562;18.920;2023-07-31T02:23:37;5.60;;;3.90;;
75340;SDS011;64931;47.562;18.920;2023-07-31T02:26:03;5.50;;;4.00;;
75340;SDS011;64931;47.562;18.920;2023-07-31T02:28:28;7.90;;;4.00;;
75340;SDS011;64931;47.562;18.920;2023-07-31T02:30:54;7.20;;;4.30;;
75340;SDS011;64931;47.562;18.920;2023-07-31T02:33:20;6.10;;;3.60;;
75340;SDS011;64931;47.562;18.920;2023-07-31T02:35:45;6.00;;;3.80;;
75340;SDS011;64931;47.562;18.920;2023-07-31T02:38:11;5.90;;;3.80;;
75340;SDS011;64931;47.562;18.920;2023-07-31T02:40:36;5.40;;;3.90;;
75340;SDS011;64931;47.562;18.920;2023-07-31T02:43:01;6.20;;;3.50;;
75340;SDS011;64931;47.562;18.920;2023-07-31T02:45:27;7.70;;;4.00;;
75340;SDS011;64931;47.562;18.920;2023-07-31T02:47:52;6.20;;;3.70;;
75340;SDS011;64931;47.562;18.920;2023-07-31T02:50:18;5.80;;;3.80;;
75340;SDS011;64931;47.562;18.920;2023-07-31T02:52:43;5.80;;;4.10;;
75340;SDS011;64931;47.562;18.920;2023-07-31T02:55:08;6.60;;;4.00;;
75340;SDS011;64931;47.562;18.920;2023-07-31T02:57:34;5.60;;;3.80;;
75340;SDS011;64931;47.562;18.920;2023-07-31T02:59:59;5.20;;;3.50;;
75340;SDS011;64931;47.562;18.920;2023-07-31T03:02:24;5.20;;;3.70;;
75340;SDS011;64931;47.562;18.920;2023-07-31T03:04:50;4.80;;;3.40;;
75340;SDS011;64931;47.562;18.920;2023-07-31T03:07:15;5.40;;;3.40;;
75340;SDS011;64931;47.562;18.920;2023-07-31T03:09:40;5.50;;;3.90;;
75340;SDS011;64931;47.562;18.920;2023-07-31T03:12:06;6.80;;;3.70;;
75340;SDS011;64931;47.562;18.920;2023-07-31T03:14:33;6.90;;;4.00;;
75340;SDS011;64931;47.562;18.920;2023-07-31T03:16:58;5.80;;;3.40;;
75340;SDS011;64931;47.562;18.920;2023-07-31T03:19:24;6.30;;;3.90;;
75340;SDS011;64931;47.562;18.920;2023-07-31T03:21:49;6.00;;;3.70;;
75340;SDS011;64931;47.562;18.920;2023-07-31T03:24:15;6.00;;;3.60;;
75340;SDS011;64931;47.562;18.920;2023-07-31T03:26:40;5.80;;;3.40;;
75340;SDS011;64931;47.562;18.920;2023-07-31T03:29:07;5.40;;;3.30;;
75340;SDS011;64931;47.562;18.920;2023-07-31T03:31:33;5.90;;;3.90;;
75340;SDS011;64931;47.562;18.920;2023-07-31T03:33:58;5.90;;;3.30;;
75340;SDS011;64931;47.562;18.920;2023-07-31T03:36:23;6.50;;;3.40;;
75340;SDS011;64931;47.562;18.920;2023-07-31T03:38:49;5.90;;;3.20;;
75340;SDS011;64931;47.562;18.920;2023-07-31T03:41:16;6.90;;;3.20;;
75340;SDS011;64931;47.562;18.920;2023-07-31T03:43:41;5.70;;;3.00;;
75340;SDS011;64931;47.562;18.920;2023-07-31T03:46:06;4.80;;;3.00;;
75340;SDS011;64931;47.562;18.920;2023-07-31T03:48:32;6.10;;;3.30;;
75340;SDS011;64931;47.562;18.920;2023-07-31T03:50:57;5.30;;;3.30;;
75340;SDS011;64931;47.562;18.920;2023-07-31T03:53:22;4.50;;;2.90;;
75340;SDS011;64931;47.562;18.920;2023-07-31T03:55:48;4.50;;;3.20;;
75340;SDS011;64931;47.562;18.920;2023-07-31T03:58:13;4.70;;;3.20;;
75340;SDS011;64931;47.562;18.920;2023-07-31T04:00:39;4.80;;;3.00;;
75340;SDS011;64931;47.562;18.920;2023-07-31T04:03:05;5.60;;;3.10;;
75340;SDS011;64931;47.562;18.920;2023-07-31T04:05:31;4.80;;;2.90;;
75340;SDS011;64931;47.562;18.920;2023-07-31T04:07:57;5.00;;;3.10;;
75340;SDS011;64931;47.562;18.920;2023-07-31T04:10:22;5.70;;;2.80;;
75340;SDS011;64931;47.562;18.920;2023-07-31T04:12:48;4.10;;;2.60;;
75340;SDS011;64931;47.562;18.920;2023-07-31T04:15:13;5.80;;;2.80;;
75340;SDS011;64931;47.562;18.920;2023-07-31T04:17:39;4.90;;;2.80;;
75340;SDS011;64931;47.562;18.920;2023-07-31T04:20:04;4.90;;;2.50;;
75340;SDS011;64931;47.562;18.920;2023-07-31T04:22:30;4.80;;;2.90;;
75340;SDS011;64931;47.562;18.920;2023-07-31T04:24:56;5.10;;;2.90;;
75340;SDS011;64931;47.562;18.920;2023-07-31T04:27:21;5.80;;;2.90;;
75340;SDS011;64931;47.562;18.920;2023-07-31T04:29:46;5.90;;;2.70;;
75340;SDS011;64931;47.562;18.920;2023-07-31T04:32:12;4.20;;;2.50;;
75340;SDS011;64931;47.562;18.920;2023-07-31T04:34:38;4.00;;;2.20;;
75340;SDS011;64931;47.562;18.920;2023-07-31T04:37:03;3.70;;;1.90;;
75340;SDS011;64931;47.562;18.920;2023-07-31T04:39:29;4.70;;;2.30;;
75340;SDS011;64931;47.562;18.920;2023-07-31T04:41:54;6.60;;;2.20;;
75340;SDS011;64931;47.562;18.920;2023-07-31T04:44:20;4.80;;;1.90;;
75340;SDS011;64931;47.562;18.920;2023-07-31T04:46:45;5.60;;;2.10;;
75340;SDS011;64931;47.562;18.920;2023-07-31T04:49:11;5.10;;;2.20;;
75340;SDS011;64931;47.562;18.920;2023-07-31T04:51:36;3.40;;;1.90;;
75340;SDS011;64931;47.562;18.920;2023-07-31T04:54:02;8.50;;;2.10;;
75340;SDS011;64931;47.562;18.920;2023-07-31T04:56:27;3.70;;;1.80;;
75340;SDS011;64931;47.562;18.920;2023-07-31T04:58:53;3.90;;;1.80;;
75340;SDS011;64931;47.562;18.920;2023-07-31T05:01:18;6.40;;;2.10;;
75340;SDS011;64931;47.562;18.920;2023-07-31T05:03:43;5.30;;;1.70;;
75340;SDS011;64931;47.562;18.920;2023-07-31T05:06:09;3.70;;;1.70;;
75340;SDS011;64931;47.562;18.920;2023-07-31T05:08:34;4.50;;;1.80;;
75340;SDS011;64931;47.562;18.920;2023-07-31T05:11:00;3.90;;;1.70;;
75340;SDS011;64931;47.562;18.920;2023-07-31T05:13:25;4.50;;;1.90;;
75340;SDS011;64931;47.562;18.920;2023-07-31T05:15:51;5.20;;;1.80;;
75340;SDS011;64931;47.562;18.920;2023-07-31T05:18:16;4.50;;;1.80;;
75340;SDS011;64931;47.562;18.920;2023-07-31T05:20:41;6.60;;;1.90;;
75340;SDS011;64931;47.562;18.920;2023-07-31T05:23:07;4.90;;;2.00;;
75340;SDS011;64931;47.562;18.920;2023-07-31T05:25:32;4.20;;;1.70;;
75340;SDS011;64931;47.562;18.920;2023-07-31T05:27:57;5.40;;;1.80;;
75340;SDS011;64931;47.562;18.920;2023-07-31T05:30:23;4.60;;;2.00;;
75340;SDS011;64931;47.562;18.920;2023-07-31T05:32:48;5.80;;;1.80;;
75340;SDS011;64931;47.562;18.920;2023-07-31T05:35:14;4.50;;;2.20;;
75340;SDS011;64931;47.562;18.920;2023-07-31T05:37:39;4.20;;;1.70;;
75340;SDS011;64931;47.562;18.920;2023-07-31T05:40:05;4.80;;;2.20;;
75340;SDS011;64931;47.562;18.920;2023-07-31T05:42:31;7.70;;;1.80;;
75340;SDS011;64931;47.562;18.920;2023-07-31T05:44:56;8.10;;;1.90;;
75340;SDS011;64931;47.562;18.920;2023-07-31T05:47:21;5.50;;;1.70;;
75340;SDS011;64931;47.562;18.920;2023-07-31T05:49:48;4.00;;;1.80;;
75340;SDS011;64931;47.562;18.920;2023-07-31T05:52:14;3.20;;;1.80;;
75340;SDS011;64931;47.562;18.920;2023-07-31T05:54:40;4.40;;;1.80;;
75340;SDS011;64931;47.562;18.920;2023-07-31T05:57:06;5.60;;;1.80;;
75340;SDS011;64931;47.562;18.920;2023-07-31T05:59:32;4.60;;;1.70;;
75340;SDS011;64931;47.562;18.920;2023-07-31T06:01:58;4.70;;;2.00;;
75340;SDS011;64931;47.562;18.920;2023-07-31T06:04:24;3.40;;;1.90;;
75340;SDS011;64931;47.562;18.920;2023-07-31T06:06:50;4.80;;;1.90;;
75340;SDS011;64931;47.562;18.920;2023-07-31T06:09:16;5.30;;;1.70;;
75340;SDS011;64931;47.562;18.920;2023-07-31T06:11:42;4.40;;;1.80;;
75340;SDS011;64931;47.562;18.920;2023-07-31T06:14:07;3.60;;;1.60;;
75340;SDS011;64931;47.562;18.920;2023-07-31T06:16:32;4.00;;;1.60;;
75340;SDS011;64931;47.562;18.920;2023-07-31T06:18:58;4.60;;;1.80;;
75340;SDS011;64931;47.562;18.920;2023-07-31T06:21:23;3.70;;;1.90;;
75340;SDS011;64931;47.562;18.920;2023-07-31T06:23:48;3.10;;;1.60;;
75340;SDS011;64931;47.562;18.920;2023-07-31T06:26:14;4.40;;;1.70;;
75340;SDS011;64931;47.562;18.920;2023-07-31T06:28:39;3.90;;;1.70;;
75340;SDS011;64931;47.562;18.920;2023-07-31T06:31:05;7.80;;;1.90;;
75340;SDS011;64931;47.562;18.920;2023-07-31T06:33:30;4.70;;;2.10;;
75340;SDS011;64931;47.562;18.920;2023-07-31T06:35:56;4.00;;;1.80;;
75340;SDS011;64931;47.562;18.920;2023-07-31T06:38:22;4.30;;;1.70;;
75340;SDS011;64931;47.562;18.920;2023-07-31T06:40:49;4.10;;;1.90;;
75340;SDS011;64931;47.562;18.920;2023-07-31T06:43:14;4.50;;;1.80;;
75340;SDS011;64931;47.562;18.920;2023-07-31T06:45:40;4.60;;;1.70;;
75340;SDS011;64931;47.562;18.920;2023-07-31T06:48:05;5.30;;;1.80;;
75340;SDS011;64931;47.562;18.920;2023-07-31T06:50:31;3.40;;;1.80;;
75340;SDS011;64931;47.562;18.920;2023-07-31T06:52:57;5.20;;;1.90;;
75340;SDS011;64931;47.562;18.920;2023-07-31T06:55:22;3.60;;;1.60;;
75340;SDS011;64931;47.562;18.920;2023-07-31T06:57:49;4.20;;;1.90;;
75340;SDS011;64931;47.562;18.920;2023-07-31T07:00:19;4.90;;;1.80;;
75340;SDS011;64931;47.562;18.920;2023-07-31T07:02:45;5.00;;;1.70;;
75340;SDS011;64931;47.562;18.920;2023-07-31T07:05:15;4.10;;;1.90;;
75340;SDS011;64931;47.562;18.920;2023-07-31T07:07:41;4.20;;;1.80;;
75340;SDS011;64931;47.562;18.920;2023-07-31T07:10:07;4.70;;;2.00;;
75340;SDS011;64931;47.562;18.920;2023-07-31T07:12:36;5.30;;;2.40;;
75340;SDS011;64931;47.562;18.920;2023-07-31T07:15:01;5.30;;;2.10;;
75340;SDS011;64931;47.562;18.920;2023-07-31T07:17:28;4.20;;;2.00;;
75340;SDS011;64931;47.562;18.920;2023-07-31T07:19:56;3.30;;;1.60;;
75340;SDS011;64931;47.562;18.920;2023-07-31T07:22:22;4.30;;;2.00;;
75340;SDS011;64931;47.562;18.920;2023-07-31T07:24:48;4.00;;;1.80;;
75340;SDS011;64931;47.562;18.920;2023-07-31T07:27:13;4.20;;;1.70;;
75340;SDS011;64931;47.562;18.920;2023-07-31T07:29:39;7.10;;;2.30;;
75340;SDS011;64931;47.562;18.920;2023-07-31T07:32:05;4.50;;;1.90;;
75340;SDS011;64931;47.562;18.920;2023-07-31T07:34:30;4.70;;;2.30;;
75340;SDS011;64931;47.562;18.920;2023-07-31T07:36:56;5.50;;;2.10;;
75340;SDS011;64931;47.562;18.920;2023-07-31T07:39:21;6.90;;;2.20;;
75340;SDS011;64931;47.562;18.920;2023-07-31T07:41:47;4.40;;;1.90;;
75340;SDS011;64931;47.562;18.920;2023-07-31T07:44:13;6.70;;;1.90;;
75340;SDS011;64931;47.562;18.920;2023-07-31T07:46:38;4.40;;;1.90;;
75340;SDS011;64931;47.562;18.920;2023-07-31T07:49:04;4.40;;;2.00;;
75340;SDS011;64931;47.562;18.920;2023-07-31T07:51:30;5.90;;;1.90;;
75340;SDS011;64931;47.562;18.920;2023-07-31T07:53:56;6.90;;;2.20;;
75340;SDS011;64931;47.562;18.920;2023-07-31T07:56:23;5.40;;;1.90;;
75340;SDS011;64931;47.562;18.920;2023-07-31T07:58:49;4.60;;;2.10;;
75340;SDS011;64931;47.562;18.920;2023-07-31T08:01:15;3.60;;;1.60;;
75340;SDS011;64931;47.562;18.920;2023-07-31T08:03:41;4.60;;;1.90;;
75340;SDS011;64931;47.562;18.920;2023-07-31T08:06:06;5.30;;;1.80;;
75340;SDS011;64931;47.562;18.920;2023-07-31T08:08:34;4.40;;;1.80;;
75340;SDS011;64931;47.562;18.920;2023-07-31T08:11:00;5.40;;;2.10;;
75340;SDS011;64931;47.562;18.920;2023-07-31T08:13:25;5.00;;;2.00;;
75340;SDS011;64931;47.562;18.920;2023-07-31T08:15:51;4.10;;;2.10;;
75340;SDS011;64931;47.562;18.920;2023-07-31T08:18:16;5.40;;;2.00;;
75340;SDS011;64931;47.562;18.920;2023-07-31T08:20:42;5.70;;;1.80;;
75340;SDS011;64931;47.562;18.920;2023-07-31T08:23:08;6.70;;;2.50;;
75340;SDS011;64931;47.562;18.920;2023-07-31T08:25:35;6.30;;;2.00;;
75340;SDS011;64931;47.562;18.920;2023-07-31T08:28:01;5.60;;;2.20;;
75340;SDS011;64931;47.562;18.920;2023-07-31T08:30:27;6.00;;;2.00;;
75340;SDS011;64931;47.562;18.920;2023-07-31T08:32:52;4.10;;;2.00;;
75340;SDS011;64931;47.562;18.920;2023-07-31T08:35:18;6.60;;;2.20;;
75340;SDS011;64931;47.562;18.920;2023-07-31T08:37:43;4.20;;;2.00;;
75340;SDS011;64931;47.562;18.920;2023-07-31T08:40:09;5.00;;;2.00;;
75340;SDS011;64931;47.562;18.920;2023-07-31T08:42:42;8.10;;;2.10;;
75340;SDS011;64931;47.562;18.920;2023-07-31T08:45:15;5.80;;;1.90;;
75340;SDS011;64931;47.562;18.920;2023-07-31T08:47:46;3.80;;;1.80;;
75340;SDS011;64931;47.562;18.920;2023-07-31T08:50:16;4.20;;;1.70;;
75340;SDS011;64931;47.562;18.920;2023-07-31T08:52:42;4.90;;;1.90;;
75340;SDS011;64931;47.562;18.920;2023-07-31T08:55:08;4.50;;;1.90;;
75340;SDS011;64931;47.562;18.920;2023-07-31T08:57:35;4.10;;;1.80;;
75340;SDS011;64931;47.562;18.920;2023-07-31T09:00:02;5.70;;;1.90;;
75340;SDS011;64931;47.562;18.920;2023-07-31T09:02:30;5.20;;;2.10;;
75340;SDS011;64931;47.562;18.920;2023-07-31T09:04:59;5.10;;;1.90;;
75340;SDS011;64931;47.562;18.920;2023-07-31T09:07:29;6.30;;;1.90;;
75340;SDS011;64931;47.562;18.920;2023-07-31T09:09:57;4.20;;;1.70;;
75340;SDS011;64931;47.562;18.920;2023-07-31T09:12:22;4.20;;;1.80;;
75340;SDS011;64931;47.562;18.920;2023-07-31T09:14:47;9.50;;;2.10;;
75340;SDS011;64931;47.562;18.920;2023-07-31T09:17:16;5.80;;;2.10;;
75340;SDS011;64931;47.562;18.920;2023-07-31T09:19:56;5.50;;;1.90;;
75340;SDS011;64931;47.562;18.920;2023-07-31T09:22:32;6.60;;;2.00;;
75340;SDS011;64931;47.562;18.920;2023-07-31T09:25:32;8.80;;;2.00;;
75340;SDS011;64931;47.562;18.920;2023-07-31T09:27:56;4.30;;;1.90;;
75340;SDS011;64931;47.562;18.920;2023-07-31T09:30:23;5.10;;;1.90;;
75340;SDS011;64931;47.562;18.920;2023-07-31T09:32:49;4.20;;;1.80;;
75340;SDS011;64931;47.562;18.920;2023-07-31T09:38:10;6.10;;;1.90;;
75340;SDS011;64931;47.562;18.920;2023-07-31T09:40:40;4.30;;;1.70;;
75340;SDS011;64931;47.562;18.920;2023-07-31T09:43:08;9.50;;;1.90;;
75340;SDS011;64931;47.562;18.920;2023-07-31T09:48:01;4.60;;;1.90;;
75340;SDS011;64931;47.562;18.920;2023-07-31T09:50:28;3.40;;;1.60;;
75340;SDS011;64931;47.562;18.920;2023-07-31T09:52:54;5.50;;;1.80;;
75340;SDS011;64931;47.562;18.920;2023-07-31T09:55:20;4.60;;;1.60;;
75340;SDS011;64931;47.562;18.920;2023-07-31T09:57:46;3.80;;;1.80;;
75340;SDS011;64931;47.562;18.920;2023-07-31T10:00:14;5.00;;;1.60;;
75340;SDS011;64931;47.562;18.920;2023-07-31T10:02:46;5.80;;;1.50;;
75340;SDS011;64931;47.562;18.920;2023-07-31T10:05:15;4.60;;;1.90;;
75340;SDS011;64931;47.562;18.920;2023-07-31T10:07:42;7.80;;;2.20;;
75340;SDS011;64931;47.562;18.920;2023-07-31T10:10:10;5.10;;;1.70;;
75340;SDS011;64931;47.562;18.920;2023-07-31T10:12:36;6.20;;;1.60;;
75340;SDS011;64931;47.562;18.920;2023-07-31T10:15:03;6.00;;;2.10;;
75340;SDS011;64931;47.562;18.920;2023-07-31T10:17:29;4.80;;;1.80;;
75340;SDS011;64931;47.562;18.920;2023-07-31T10:19:56;3.90;;;1.70;;
75340;SDS011;64931;47.562;18.920;2023-07-31T10:22:26;7.80;;;1.80;;
75340;SDS011;64931;47.562;18.920;2023-07-31T10:24:52;6.00;;;1.80;;
75340;SDS011;64931;47.562;18.920;2023-07-31T10:27:17;4.10;;;1.70;;
75340;SDS011;64931;47.562;18.920;2023-07-31T10:29:43;6.10;;;1.70;;
75340;SDS011;64931;47.562;18.920;2023-07-31T10:32:10;4.80;;;1.80;;
75340;SDS011;64931;47.562;18.920;2023-07-31T10:34:37;3.20;;;1.60;;
75340;SDS011;64931;47.562;18.920;2023-07-31T10:39:55;7.00;;;1.70;;
75340;SDS011;64931;47.562;18.920;2023-07-31T10:45:07;4.90;;;1.60;;
75340;SDS011;64931;47.562;18.920;2023-07-31T10:47:38;4.40;;;1.50;;
75340;SDS011;64931;47.562;18.920;2023-07-31T10:50:11;3.80;;;1.30;;
75340;SDS011;64931;47.562;18.920;2023-07-31T10:52:48;4.70;;;1.30;;
75340;SDS011;64931;47.562;18.920;2023-07-31T10:55:15;4.60;;;1.40;;
75340;SDS011;64931;47.562;18.920;2023-07-31T10:57:46;4.50;;;1.50;;
75340;SDS011;64931;47.562;18.920;2023-07-31T11:00:19;4.90;;;1.50;;
75340;SDS011;64931;47.562;18.920;2023-07-31T11:02:57;4.40;;;1.50;;
75340;SDS011;64931;47.562;18.920;2023-07-31T11:05:40;3.90;;;1.50;;
75340;SDS011;64931;47.562;18.920;2023-07-31T11:10:48;3.80;;;1.50;;
75340;SDS011;64931;47.562;18.920;2023-07-31T11:13:16;7.10;;;1.50;;
75340;SDS011;64931;47.562;18.920;2023-07-31T11:15:41;4.70;;;1.50;;
75340;SDS011;64931;47.562;18.920;2023-07-31T11:18:07;4.70;;;1.50;;
75340;SDS011;64931;47.562;18.920;2023-07-31T11:20:33;7.20;;;1.50;;
75340;SDS011;64931;47.562;18.920;2023-07-31T11:23:06;7.30;;;1.60;;
75340;SDS011;64931;47.562;18.920;2023-07-31T11:25:33;5.60;;;1.60;;
75340;SDS011;64931;47.562;18.920;2023-07-31T11:28:06;3.70;;;1.30;;
75340;SDS011;64931;47.562;18.920;2023-07-31T11:30:32;6.10;;;1.60;;
75340;SDS011;64931;47.562;18.920;2023-07-31T11:32:59;4.70;;;1.60;;
75340;SDS011;64931;47.562;18.920;2023-07-31T11:35:28;4.80;;;1.50;;
75340;SDS011;64931;47.562;18.920;2023-07-31T11:37:57;4.80;;;1.30;;
75340;SDS011;64931;47.562;18.920;2023-07-31T11:40:22;4.10;;;1.50;;
75340;SDS011;64931;47.562;18.920;2023-07-31T11:42:53;4.80;;;1.60;;
75340;SDS011;64931;47.562;18.920;2023-07-31T11:45:19;5.70;;;1.60;;
75340;SDS011;64931;47.562;18.920;2023-07-31T11:47:45;3.80;;;1.50;;
75340;SDS011;64931;47.562;18.920;2023-07-31T11:50:10;4.70;;;1.50;;
75340;SDS011;64931;47.562;18.920;2023-07-31T11:52:41;3.90;;;1.50;;
75340;SDS011;64931;47.562;18.920;2023-07-31T11:55:08;5.20;;;1.30;;
75340;SDS011;64931;47.562;18.920;2023-07-31T11:57:38;4.60;;;1.50;;
75340;SDS011;64931;47.562;18.920;2023-07-31T12:02:30;6.40;;;1.50;;
75340;SDS011;64931;47.562;18.920;2023-07-31T12:04:56;4.30;;;1.40;;
75340;SDS011;64931;47.562;18.920;2023-07-31T12:07:21;3.70;;;1.40;;
75340;SDS011;64931;47.562;18.920;2023-07-31T12:12:22;4.40;;;1.60;;
75340;SDS011;64931;47.562;18.920;2023-07-31T12:14:48;3.50;;;1.30;;
75340;SDS011;64931;47.562;18.920;2023-07-31T12:17:13;4.40;;;1.60;;
75340;SDS011;64931;47.562;18.920;2023-07-31T12:19:39;4.90;;;1.60;;
75340;SDS011;64931;47.562;18.920;2023-07-31T12:22:12;5.80;;;1.50;;
75340;SDS011;64931;47.562;18.920;2023-07-31T12:24:39;4.10;;;1.50;;
75340;SDS011;64931;47.562;18.920;2023-07-31T12:27:11;5.20;;;1.70;;
75340;SDS011;64931;47.562;18.920;2023-07-31T12:29:38;3.70;;;1.50;;
75340;SDS011;64931;47.562;18.920;2023-07-31T12:32:05;4.40;;;1.50;;
75340;SDS011;64931;47.562;18.920;2023-07-31T12:34:43;5.00;;;1.80;;
75340;SDS011;64931;47.562;18.920;2023-07-31T12:37:08;4.10;;;1.50;;
75340;SDS011;64931;47.562;18.920;2023-07-31T12:39:37;4.10;;;1.50;;
75340;SDS011;64931;47.562;18.920;2023-07-31T12:42:05;5.00;;;1.60;;
75340;SDS011;64931;47.562;18.920;2023-07-31T12:44:31;4.80;;;1.50;;
75340;SDS011;64931;47.562;18.920;2023-07-31T12:46:56;5.40;;;1.40;;
75340;SDS011;64931;47.562;18.920;2023-07-31T12:49:22;4.20;;;1.50;;
75340;SDS011;64931;47.562;18.920;2023-07-31T12:51:47;5.10;;;1.60;;
75340;SDS011;64931;47.562;18.920;2023-07-31T12:54:13;5.40;;;1.40;;
75340;SDS011;64931;47.562;18.920;2023-07-31T12:56:38;5.00;;;1.60;;
75340;SDS011;64931;47.562;18.920;2023-07-31T12:59:03;3.70;;;1.60;;
75340;SDS011;64931;47.562;18.920;2023-07-31T13:01:29;4.80;;;1.60;;
75340;SDS011;64931;47.562;18.920;2023-07-31T13:03:54;6.00;;;1.70;;
75340;SDS011;64931;47.562;18.920;2023-07-31T13:06:19;4.90;;;1.60;;
75340;SDS011;64931;47.562;18.920;2023-07-31T13:08:45;5.50;;;1.50;;
75340;SDS011;64931;47.562;18.920;2023-07-31T13:11:10;5.10;;;1.60;;
75340;SDS011;64931;47.562;18.920;2023-07-31T13:13:36;4.20;;;1.40;;
75340;SDS011;64931;47.562;18.920;2023-07-31T13:16:01;5.60;;;1.80;;
75340;SDS011;64931;47.562;18.920;2023-07-31T13:18:26;5.10;;;1.60;;
75340;SDS011;64931;47.562;18.920;2023-07-31T13:20:52;5.40;;;2.00;;
75340;SDS011;64931;47.562;18.920;2023-07-31T13:23:17;5.10;;;1.70;;
75340;SDS011;64931;47.562;18.920;2023-07-31T13:25:42;4.60;;;1.60;;
75340;SDS011;64931;47.562;18.920;2023-07-31T13:28:08;4.30;;;1.40;;
75340;SDS011;64931;47.562;18.920;2023-07-31T13:30:36;7.60;;;1.90;;
75340;SDS011;64931;47.562;18.920;2023-07-31T13:33:02;4.70;;;1.60;;
75340;SDS011;64931;47.562;18.920;2023-07-31T13:35:27;3.20;;;1.30;;
75340;SDS011;64931;47.562;18.920;2023-07-31T13:37:53;5.30;;;1.60;;
75340;SDS011;64931;47.562;18.920;2023-07-31T13:40:18;4.10;;;1.70;;
75340;SDS011;64931;47.562;18.920;2023-07-31T13:43:17;7.90;;;1.50;;
75340;SDS011;64931;47.562;18.920;2023-07-31T13:45:42;4.00;;;1.70;;
75340;SDS011;64931;47.562;18.920;2023-07-31T13:48:08;2.60;;;1.30;;
75340;SDS011;64931;47.562;18.920;2023-07-31T13:50:34;3.80;;;1.80;;
75340;SDS011;64931;47.562;18.920;2023-07-31T13:52:59;4.60;;;1.60;;
75340;SDS011;64931;47.562;18.920;2023-07-31T13:55:24;4.60;;;1.50;;
75340;SDS011;64931;47.562;18.920;2023-07-31T13:57:50;4.30;;;1.40;;
75340;SDS011;64931;47.562;18.920;2023-07-31T14:00:16;5.30;;;1.70;;
75340;SDS011;64931;47.562;18.920;2023-07-31T14:02:41;6.10;;;1.50;;
75340;SDS011;64931;47.562;18.920;2023-07-31T14:05:07;5.10;;;1.70;;
75340;SDS011;64931;47.562;18.920;2023-07-31T14:10:00;4.30;;;1.70;;
75340;SDS011;64931;47.562;18.920;2023-07-31T14:12:25;3.30;;;1.40;;
75340;SDS011;64931;47.562;18.920;2023-07-31T14:14:50;7.70;;;1.80;;
75340;SDS011;64931;47.562;18.920;2023-07-31T14:17:16;4.40;;;1.50;;
75340;SDS011;64931;47.562;18.920;2023-07-31T14:19:42;4.30;;;1.50;;
75340;SDS011;64931;47.562;18.920;2023-07-31T14:22:07;4.10;;;1.60;;
75340;SDS011;64931;47.562;18.920;2023-07-31T14:24:32;5.90;;;1.50;;
75340;SDS011;64931;47.562;18.920;2023-07-31T14:26:58;6.70;;;1.60;;
75340;SDS011;64931;47.562;18.920;2023-07-31T14:29:23;5.10;;;1.60;;
75340;SDS011;64931;47.562;18.920;2023-07-31T14:31:49;4.40;;;1.60;;
75340;SDS011;64931;47.562;18.920;2023-07-31T14:34:14;4.10;;;1.40;;
75340;SDS011;64931;47.562;18.920;2023-07-31T14:36:40;4.20;;;1.40;;
75340;SDS011;64931;47.562;18.920;2023-07-31T14:39:06;4.90;;;1.50;;
75340;SDS011;64931;47.562;18.920;2023-07-31T14:41:31;4.60;;;1.60;;
75340;SDS011;64931;47.562;18.920;2023-07-31T14:43:57;4.20;;;1.50;;
75340;SDS011;64931;47.562;18.920;2023-07-31T14:46:22;3.50;;;1.50;;
75340;SDS011;64931;47.562;18.920;2023-07-31T14:48:47;4.30;;;1.70;;
75340;SDS011;64931;47.562;18.920;2023-07-31T14:51:13;4.70;;;1.60;;
75340;SDS011;64931;47.562;18.920;2023-07-31T14:53:39;4.00;;;1.50;;
75340;SDS011;64931;47.562;18.920;2023-07-31T14:56:04;4.40;;;1.50;;